QFA180 YSNF-YSSY
Flight info
| Callsign | QFA180 |
|---|---|
| Flight time | N/A |
| Altitude | 39000 |
| Route | NF B450 LHI H258 RIKNI N774 MARLN |
| Aircraft | A21N/M-SDE2E3FGHIRWXY/LB1 |
Departure
| Time | 2026-04-12 05:26 |
|---|---|
| Airport | Norfolk Island International Airport (YSNF) |
Arrival
| Time | N/A |
|---|---|
| Airport | Sydney Kingsford Smith International Airport (YSSY) |
| Time | Latitude | Longitude | Altitude | Speed | Heading |
|---|---|---|---|---|---|
| 2026-04-12 05:18 | -29.03760 | 167.94275 | 375 ft | 0 kts | 285° |
| 2026-04-12 05:22 | -29.03759 | 167.94274 | 375 ft | 0 kts | 285° |
| 2026-04-12 05:23 | -29.03760 | 167.94273 | 375 ft | 1 kts | 279° |
| 2026-04-12 05:24 | -29.03761 | 167.94270 | 375 ft | 0 kts | 248° |
| 2026-04-12 05:24 | -29.03767 | 167.94269 | 375 ft | 2 kts | 185° |
| 2026-04-12 05:24 | -29.03815 | 167.94354 | 377 ft | 15 kts | 124° |
| 2026-04-12 05:24 | -29.03871 | 167.94383 | 377 ft | 0 kts | 226° |
| 2026-04-12 05:25 | -29.04108 | 167.94068 | 365 ft | 106 kts | 230° |
| 2026-04-12 05:25 | -29.04765 | 167.93154 | 636 ft | 177 kts | 231° |
| 2026-04-12 05:26 | -29.05553 | 167.91911 | 1428 ft | 208 kts | 244° |
| 2026-04-12 05:26 | -29.06237 | 167.90311 | 2294 ft | 241 kts | 248° |
| 2026-04-12 05:26 | -29.06897 | 167.88484 | 3267 ft | 251 kts | 250° |
| 2026-04-12 05:26 | -29.07499 | 167.86615 | 4445 ft | 255 kts | 252° |
| 2026-04-12 05:27 | -29.08092 | 167.84676 | 5599 ft | 260 kts | 252° |
| 2026-04-12 05:27 | -29.08684 | 167.82707 | 6718 ft | 263 kts | 252° |
| 2026-04-12 05:27 | -29.09287 | 167.80709 | 7789 ft | 267 kts | 252° |
| 2026-04-12 05:27 | -29.09904 | 167.78689 | 8897 ft | 270 kts | 253° |
| 2026-04-12 05:28 | -29.10525 | 167.76673 | 9981 ft | 273 kts | 253° |
| 2026-04-12 05:28 | -29.11180 | 167.74559 | 10650 ft | 293 kts | 253° |
| 2026-04-12 05:28 | -29.11892 | 167.72256 | 11013 ft | 319 kts | 253° |
| 2026-04-12 05:28 | -29.12663 | 167.69772 | 11341 ft | 342 kts | 252° |
| 2026-04-12 05:29 | -29.13484 | 167.67136 | 11642 ft | 361 kts | 252° |
| 2026-04-12 05:29 | -29.14346 | 167.64375 | 12039 ft | 373 kts | 252° |
| 2026-04-12 05:29 | -29.15227 | 167.61560 | 12586 ft | 378 kts | 252° |
| 2026-04-12 05:29 | -29.16118 | 167.58713 | 13160 ft | 381 kts | 252° |
| 2026-04-12 05:30 | -29.17003 | 167.55877 | 13737 ft | 384 kts | 252° |
| 2026-04-12 05:30 | -29.17906 | 167.52980 | 14230 ft | 387 kts | 253° |
| 2026-04-12 05:30 | -29.18811 | 167.50067 | 14727 ft | 388 kts | 253° |
| 2026-04-12 05:30 | -29.19718 | 167.47144 | 15228 ft | 390 kts | 253° |
| 2026-04-12 05:31 | -29.20615 | 167.44247 | 15709 ft | 391 kts | 253° |
| 2026-04-12 05:31 | -29.21526 | 167.41301 | 16189 ft | 392 kts | 253° |
| 2026-04-12 05:31 | -29.22439 | 167.38347 | 16650 ft | 394 kts | 253° |
| 2026-04-12 05:31 | -29.23356 | 167.35376 | 17073 ft | 396 kts | 253° |
| 2026-04-12 05:32 | -29.23964 | 167.33407 | 17321 ft | 397 kts | 253° |
| 2026-04-12 05:32 | -29.24889 | 167.30407 | 17705 ft | 398 kts | 253° |
| 2026-04-12 05:32 | -29.26114 | 167.26429 | 18156 ft | 400 kts | 254° |
| 2026-04-12 05:32 | -29.27044 | 167.23408 | 18421 ft | 401 kts | 254° |
| 2026-04-12 05:33 | -29.27659 | 167.21409 | 18591 ft | 402 kts | 254° |
| 2026-04-12 05:33 | -29.28592 | 167.18374 | 18821 ft | 403 kts | 254° |
| 2026-04-12 05:33 | -29.29827 | 167.14352 | 19109 ft | 404 kts | 254° |
| 2026-04-12 05:33 | -29.30761 | 167.11306 | 19299 ft | 405 kts | 254° |
| 2026-04-12 05:34 | -29.31393 | 167.09245 | 19423 ft | 405 kts | 254° |
| 2026-04-12 05:34 | -29.32317 | 167.06227 | 19608 ft | 406 kts | 254° |
| 2026-04-12 05:34 | -29.33251 | 167.03171 | 19775 ft | 406 kts | 254° |
| 2026-04-12 05:34 | -29.34186 | 167.00113 | 19933 ft | 407 kts | 254° |
| 2026-04-12 05:35 | -29.35124 | 166.97041 | 20088 ft | 408 kts | 254° |
| 2026-04-12 05:35 | -29.36060 | 166.93971 | 20241 ft | 408 kts | 254° |
| 2026-04-12 05:35 | -29.36998 | 166.90894 | 20410 ft | 409 kts | 254° |
| 2026-04-12 05:35 | -29.37938 | 166.87804 | 20614 ft | 410 kts | 254° |
| 2026-04-12 05:36 | -29.38877 | 166.84717 | 20851 ft | 411 kts | 254° |
| 2026-04-12 05:36 | -29.39808 | 166.81653 | 21112 ft | 411 kts | 255° |
| 2026-04-12 05:36 | -29.40753 | 166.78542 | 21396 ft | 412 kts | 255° |
| 2026-04-12 05:36 | -29.41698 | 166.75424 | 21706 ft | 413 kts | 255° |
| 2026-04-12 05:37 | -29.42645 | 166.72298 | 22026 ft | 414 kts | 255° |
| 2026-04-12 05:37 | -29.43592 | 166.69168 | 22355 ft | 416 kts | 255° |
| 2026-04-12 05:37 | -29.44532 | 166.66061 | 22745 ft | 416 kts | 255° |
| 2026-04-12 05:37 | -29.45484 | 166.62911 | 23170 ft | 416 kts | 255° |
| 2026-04-12 05:38 | -29.46436 | 166.59757 | 23533 ft | 418 kts | 255° |
| 2026-04-12 05:38 | -29.47388 | 166.56600 | 23845 ft | 419 kts | 255° |
| 2026-04-12 05:38 | -29.48331 | 166.53467 | 24187 ft | 420 kts | 255° |
| 2026-04-12 05:38 | -29.49287 | 166.50292 | 24567 ft | 421 kts | 255° |
| 2026-04-12 05:39 | -29.50248 | 166.47098 | 24979 ft | 422 kts | 255° |
| 2026-04-12 05:39 | -29.51207 | 166.43905 | 25400 ft | 423 kts | 255° |
| 2026-04-12 05:39 | -29.52168 | 166.40702 | 25810 ft | 424 kts | 255° |
| 2026-04-12 05:39 | -29.53128 | 166.37499 | 26284 ft | 424 kts | 255° |
| 2026-04-12 05:40 | -29.54085 | 166.34309 | 26928 ft | 419 kts | 255° |
| 2026-04-12 05:40 | -29.55031 | 166.31155 | 27598 ft | 414 kts | 255° |
| 2026-04-12 05:40 | -29.55953 | 166.28079 | 28249 ft | 410 kts | 256° |
| 2026-04-12 05:40 | -29.56878 | 166.24986 | 28874 ft | 407 kts | 256° |
| 2026-04-12 05:41 | -29.57793 | 166.21919 | 29492 ft | 404 kts | 256° |
| 2026-04-12 05:41 | -29.58698 | 166.18882 | 30088 ft | 400 kts | 256° |
| 2026-04-12 05:41 | -29.59597 | 166.15861 | 30614 ft | 397 kts | 256° |
| 2026-04-12 05:41 | -29.60478 | 166.12900 | 31141 ft | 394 kts | 256° |
| 2026-04-12 05:42 | -29.61360 | 166.09930 | 31700 ft | 390 kts | 256° |
| 2026-04-12 05:42 | -29.62237 | 166.06977 | 32235 ft | 387 kts | 256° |
| 2026-04-12 05:42 | -29.63104 | 166.04054 | 32753 ft | 384 kts | 256° |
| 2026-04-12 05:43 | -29.64815 | 165.98274 | 33762 ft | 379 kts | 255° |
| 2026-04-12 05:43 | -29.65650 | 165.95453 | 34234 ft | 376 kts | 256° |
| 2026-04-12 05:43 | -29.66490 | 165.92609 | 34649 ft | 374 kts | 256° |
| 2026-04-12 05:43 | -29.67327 | 165.89774 | 35038 ft | 372 kts | 256° |
| 2026-04-12 05:44 | -29.68159 | 165.86952 | 35417 ft | 370 kts | 256° |
| 2026-04-12 05:44 | -29.68975 | 165.84184 | 35780 ft | 369 kts | 256° |
| 2026-04-12 05:44 | -29.69797 | 165.81390 | 36136 ft | 367 kts | 256° |
| 2026-04-12 05:44 | -29.70615 | 165.78611 | 36487 ft | 366 kts | 256° |
| 2026-04-12 05:45 | -29.71429 | 165.75843 | 36859 ft | 364 kts | 256° |
| 2026-04-12 05:45 | -29.72240 | 165.73085 | 37237 ft | 362 kts | 256° |
| 2026-04-12 05:45 | -29.73034 | 165.70380 | 37585 ft | 360 kts | 256° |
| 2026-04-12 05:45 | -29.73835 | 165.67648 | 37938 ft | 359 kts | 256° |
| 2026-04-12 05:46 | -29.74631 | 165.64930 | 38282 ft | 357 kts | 256° |
| 2026-04-12 05:46 | -29.75423 | 165.62223 | 38619 ft | 356 kts | 256° |
| 2026-04-12 05:46 | -29.76213 | 165.59522 | 38839 ft | 356 kts | 256° |
| 2026-04-12 05:46 | -29.77004 | 165.56814 | 38880 ft | 355 kts | 256° |
| 2026-04-12 05:47 | -29.78570 | 165.51449 | 38887 ft | 356 kts | 256° |
| 2026-04-12 05:47 | -29.80145 | 165.46040 | 38884 ft | 356 kts | 256° |
| 2026-04-12 05:48 | -29.81718 | 165.40633 | 38881 ft | 356 kts | 256° |
| 2026-04-12 05:48 | -29.83288 | 165.35227 | 38881 ft | 356 kts | 256° |
| 2026-04-12 05:49 | -29.84847 | 165.29850 | 38881 ft | 356 kts | 257° |
| 2026-04-12 05:49 | -29.86413 | 165.24441 | 38881 ft | 356 kts | 257° |
| 2026-04-12 05:50 | -29.87977 | 165.19027 | 38881 ft | 356 kts | 257° |
| 2026-04-12 05:50 | -29.89539 | 165.13612 | 38878 ft | 356 kts | 257° |
| 2026-04-12 05:51 | -29.91090 | 165.08225 | 38878 ft | 356 kts | 257° |
| 2026-04-12 05:51 | -29.92647 | 165.02809 | 38879 ft | 355 kts | 257° |
| 2026-04-12 05:52 | -29.94200 | 164.97397 | 38879 ft | 355 kts | 257° |
| 2026-04-12 05:52 | -29.95740 | 164.92018 | 38875 ft | 355 kts | 257° |
| 2026-04-12 05:53 | -29.97292 | 164.86593 | 38875 ft | 355 kts | 257° |
| 2026-04-12 05:53 | -29.98825 | 164.81220 | 38876 ft | 355 kts | 257° |
| 2026-04-12 05:54 | -30.00369 | 164.75804 | 38879 ft | 355 kts | 257° |
| 2026-04-12 05:54 | -30.01910 | 164.70387 | 38878 ft | 355 kts | 257° |
| 2026-04-12 05:55 | -30.03450 | 164.64964 | 38878 ft | 354 kts | 257° |
| 2026-04-12 05:55 | -30.04972 | 164.59593 | 38887 ft | 354 kts | 257° |
| 2026-04-12 05:56 | -30.06501 | 164.54190 | 38872 ft | 354 kts | 257° |
| 2026-04-12 05:56 | -30.08029 | 164.48781 | 38874 ft | 353 kts | 257° |
| 2026-04-12 05:57 | -30.09541 | 164.43417 | 38872 ft | 353 kts | 257° |
| 2026-04-12 05:57 | -30.11067 | 164.37995 | 38873 ft | 353 kts | 257° |
| 2026-04-12 05:58 | -30.12577 | 164.32622 | 38867 ft | 353 kts | 258° |
| 2026-04-12 05:58 | -30.14091 | 164.27225 | 38872 ft | 352 kts | 258° |
| 2026-04-12 05:59 | -30.15602 | 164.21830 | 38872 ft | 352 kts | 258° |
| 2026-04-12 05:59 | -30.17100 | 164.16470 | 38866 ft | 352 kts | 258° |
| 2026-04-12 06:00 | -30.18604 | 164.11079 | 38871 ft | 352 kts | 258° |
| 2026-04-12 06:00 | -30.20107 | 164.05683 | 38866 ft | 352 kts | 258° |
| 2026-04-12 06:01 | -30.21598 | 164.00318 | 38857 ft | 352 kts | 258° |
| 2026-04-12 06:01 | -30.23096 | 163.94921 | 38864 ft | 352 kts | 258° |
| 2026-04-12 06:02 | -30.24593 | 163.89518 | 38874 ft | 351 kts | 258° |
| 2026-04-12 06:02 | -30.26070 | 163.84181 | 38865 ft | 350 kts | 258° |
| 2026-04-12 06:03 | -30.27551 | 163.78815 | 38861 ft | 349 kts | 258° |
| 2026-04-12 06:03 | -30.29027 | 163.73456 | 38859 ft | 349 kts | 258° |
| 2026-04-12 06:04 | -30.30494 | 163.68122 | 38859 ft | 349 kts | 258° |
| 2026-04-12 06:04 | -30.31967 | 163.62758 | 38859 ft | 349 kts | 259° |
| 2026-04-12 06:05 | -30.33436 | 163.57398 | 38860 ft | 349 kts | 259° |
| 2026-04-12 06:05 | -30.34894 | 163.52070 | 38859 ft | 349 kts | 259° |
| 2026-04-12 06:06 | -30.36362 | 163.46696 | 38856 ft | 349 kts | 259° |
| 2026-04-12 06:06 | -30.37814 | 163.41370 | 38856 ft | 349 kts | 259° |
| 2026-04-12 06:07 | -30.39277 | 163.35992 | 38858 ft | 349 kts | 259° |
| 2026-04-12 06:07 | -30.40734 | 163.30630 | 38856 ft | 349 kts | 259° |
| 2026-04-12 06:08 | -30.42179 | 163.25303 | 38856 ft | 348 kts | 259° |
| 2026-04-12 06:08 | -30.43629 | 163.19950 | 38849 ft | 346 kts | 259° |
| 2026-04-12 06:09 | -30.45059 | 163.14656 | 38846 ft | 345 kts | 259° |
| 2026-04-12 06:09 | -30.46494 | 163.09333 | 38852 ft | 345 kts | 259° |
| 2026-04-12 06:10 | -30.47929 | 163.04004 | 38840 ft | 345 kts | 259° |
| 2026-04-12 06:10 | -30.49362 | 162.98719 | 38841 ft | 345 kts | 259° |
| 2026-04-12 06:11 | -30.50845 | 162.93434 | 38837 ft | 346 kts | 259° |
| 2026-04-12 06:11 | -30.52349 | 162.88121 | 38837 ft | 345 kts | 259° |
| 2026-04-12 06:12 | -30.53845 | 162.82821 | 38836 ft | 345 kts | 259° |
| 2026-04-12 06:12 | -30.55338 | 162.77505 | 38838 ft | 349 kts | 259° |
| 2026-04-12 06:13 | -30.56837 | 162.72150 | 38841 ft | 351 kts | 259° |
| 2026-04-12 06:13 | -30.58347 | 162.66757 | 38839 ft | 351 kts | 259° |
| 2026-04-12 06:14 | -30.59849 | 162.61385 | 38832 ft | 351 kts | 259° |
| 2026-04-12 06:14 | -30.61354 | 162.55990 | 38851 ft | 350 kts | 259° |
| 2026-04-12 06:15 | -30.62851 | 162.50616 | 38834 ft | 349 kts | 259° |
| 2026-04-12 06:15 | -30.64341 | 162.45252 | 38834 ft | 349 kts | 259° |
| 2026-04-12 06:16 | -30.65823 | 162.39904 | 38835 ft | 349 kts | 259° |
| 2026-04-12 06:16 | -30.67310 | 162.34530 | 38829 ft | 349 kts | 259° |
| 2026-04-12 06:17 | -30.68794 | 162.29162 | 38829 ft | 349 kts | 260° |
| 2026-04-12 06:17 | -30.70266 | 162.23823 | 38834 ft | 349 kts | 260° |
| 2026-04-12 06:18 | -30.71744 | 162.18460 | 38829 ft | 348 kts | 260° |
| 2026-04-12 06:18 | -30.73218 | 162.13095 | 38829 ft | 348 kts | 260° |
| 2026-04-12 06:19 | -30.74691 | 162.07727 | 38823 ft | 348 kts | 260° |
| 2026-04-12 06:19 | -30.76150 | 162.02398 | 38823 ft | 348 kts | 260° |
| 2026-04-12 06:20 | -30.77620 | 161.97020 | 38821 ft | 348 kts | 260° |
| 2026-04-12 06:20 | -30.79074 | 161.91692 | 38835 ft | 347 kts | 260° |
| 2026-04-12 06:21 | -30.80533 | 161.86336 | 38816 ft | 347 kts | 260° |
| 2026-04-12 06:21 | -30.81989 | 161.80982 | 38815 ft | 347 kts | 260° |
| 2026-04-12 06:22 | -30.83198 | 161.76524 | 38821 ft | 347 kts | 260° |
| 2026-04-12 06:22 | -30.84885 | 161.70299 | 38819 ft | 346 kts | 260° |
| 2026-04-12 06:23 | -30.86090 | 161.65843 | 38813 ft | 346 kts | 260° |
| 2026-04-12 06:23 | -30.87536 | 161.60486 | 38816 ft | 346 kts | 260° |
| 2026-04-12 06:24 | -30.88982 | 161.55123 | 38814 ft | 346 kts | 261° |
| 2026-04-12 06:24 | -30.90414 | 161.49800 | 38811 ft | 346 kts | 261° |
| 2026-04-12 06:25 | -30.91843 | 161.44480 | 38812 ft | 345 kts | 261° |
| 2026-04-12 06:25 | -30.93274 | 161.39139 | 38817 ft | 345 kts | 261° |
| 2026-04-12 06:26 | -30.94704 | 161.33794 | 38814 ft | 345 kts | 261° |
| 2026-04-12 06:26 | -30.96124 | 161.28474 | 38843 ft | 345 kts | 261° |
| 2026-04-12 06:27 | -30.97549 | 161.23130 | 38811 ft | 345 kts | 261° |
| 2026-04-12 06:27 | -30.98971 | 161.17785 | 38811 ft | 345 kts | 261° |